createdAt,value
2019-01-11T06:55:07.530Z,20.31
2019-01-11T06:56:07.523Z,20.27
2019-01-11T06:57:07.502Z,20.33
2019-01-11T06:58:07.506Z,20.31
2019-01-11T06:59:07.476Z,20.31
2019-01-11T07:00:07.479Z,20.33
2019-01-11T07:01:07.447Z,20.34
2019-01-11T07:02:07.458Z,20.43
2019-01-11T07:03:09.102Z,20.43
2019-01-11T07:04:07.452Z,20.43
2019-01-11T07:05:07.410Z,20.46
2019-01-11T07:06:07.554Z,20.45
2019-01-11T07:07:07.389Z,20.52
2019-01-11T07:08:07.377Z,20.42
2019-01-11T07:09:07.386Z,20.52
2019-01-11T07:10:07.352Z,20.49
2019-01-11T07:11:07.434Z,20.48
2019-01-11T07:12:07.344Z,20.45
2019-01-11T07:13:07.328Z,20.55
2019-01-11T07:14:07.326Z,20.50
2019-01-11T07:15:07.360Z,20.46
2019-01-11T07:16:07.311Z,20.50
2019-01-11T07:17:07.307Z,20.57
2019-01-11T07:18:07.294Z,20.58
2019-01-11T07:19:07.329Z,20.58
2019-01-11T07:20:07.238Z,20.61
2019-01-11T07:21:07.262Z,20.55
2019-01-11T07:22:07.228Z,20.58
2019-01-11T07:23:07.205Z,20.53
2019-01-11T07:24:07.212Z,20.58
2019-01-11T07:25:07.212Z,20.63
2019-01-11T07:26:07.176Z,20.57
2019-01-11T07:27:07.156Z,20.63
2019-01-11T07:28:13.532Z,20.65
2019-01-11T07:29:28.635Z,20.60
2019-01-11T07:30:28.617Z,20.61
2019-01-11T07:31:28.616Z,20.60
2019-01-11T07:32:28.647Z,20.63
2019-01-11T07:33:28.571Z,20.61
2019-01-11T07:34:28.554Z,20.61
2019-01-11T07:35:28.793Z,20.57
2019-01-11T07:36:28.553Z,20.61
2019-01-11T07:37:28.526Z,20.61
2019-01-11T07:38:28.552Z,20.63
2019-01-11T07:39:28.494Z,20.64
2019-01-11T07:40:28.495Z,20.61
2019-01-11T07:41:28.501Z,20.65
2019-01-11T07:42:28.539Z,20.71
2019-01-11T07:43:28.475Z,20.61
2019-01-11T07:44:28.467Z,20.60
2019-01-11T07:45:28.427Z,20.67
2019-01-11T07:46:28.422Z,20.68
2019-01-11T07:47:28.429Z,20.63
2019-01-11T07:48:28.480Z,20.68
2019-01-11T07:49:28.414Z,20.71
2019-01-11T07:50:28.492Z,20.75
2019-01-11T07:51:28.382Z,20.68
2019-01-11T07:52:28.353Z,20.75
2019-01-11T07:53:28.340Z,20.71
2019-01-11T07:54:28.388Z,20.70
2019-01-11T07:55:28.393Z,20.82
2019-01-11T07:56:28.358Z,20.71
2019-01-11T07:57:28.418Z,20.73
2019-01-11T07:58:28.327Z,20.78
2019-01-11T07:59:28.365Z,20.78
2019-01-11T08:00:33.833Z,20.73
2019-01-11T08:01:28.283Z,20.75
2019-01-11T08:02:28.286Z,20.78
2019-01-11T08:03:28.265Z,20.71
2019-01-11T08:04:28.388Z,20.78
2019-01-11T08:05:28.232Z,20.82
2019-01-11T08:06:28.272Z,20.73
2019-01-11T08:08:55.184Z,20.75
